createdAt,value
2019-01-02T00:00:13.684Z,5.47
2019-01-02T00:02:43.603Z,5.47
2019-01-02T00:05:13.127Z,5.57
2019-01-02T00:07:42.668Z,5.10
2019-01-02T00:10:12.178Z,3.20
2019-01-02T00:12:41.781Z,4.20
2019-01-02T00:15:11.575Z,4.63
2019-01-02T00:17:41.120Z,5.10
2019-01-02T00:20:15.296Z,3.57
2019-01-02T00:22:44.846Z,3.60
2019-01-02T00:25:14.355Z,4.70
2019-01-02T00:27:43.907Z,4.63
2019-01-02T00:30:13.414Z,4.20
2019-01-02T00:32:43.234Z,4.93
2019-01-02T00:35:12.833Z,5.80
2019-01-02T00:37:42.661Z,4.40
2019-01-02T00:40:12.843Z,4.10
2019-01-02T00:42:42.876Z,4.40
2019-01-02T00:45:12.457Z,4.03
2019-01-02T00:47:42.273Z,4.83
2019-01-02T00:50:12.582Z,5.50
2019-01-02T00:52:42.104Z,4.57
2019-01-02T00:55:11.694Z,5.50
2019-01-02T00:57:41.615Z,5.97
2019-01-02T01:00:16.111Z,4.53
2019-01-02T01:02:45.642Z,4.57
2019-01-02T01:05:15.264Z,5.27
2019-01-02T01:07:45.264Z,4.07
2019-01-02T01:10:17.853Z,5.60
2019-01-02T01:12:47.704Z,5.63
2019-01-02T01:15:17.263Z,5.47
2019-01-02T01:17:46.774Z,5.17
2019-01-02T01:20:18.015Z,6.27
2019-01-02T01:22:47.538Z,4.43
2019-01-02T01:25:17.071Z,6.00
2019-01-02T01:27:46.663Z,4.30
2019-01-02T01:30:16.656Z,4.10
2019-01-02T01:32:46.177Z,5.10
2019-01-02T01:35:15.711Z,4.73
2019-01-02T01:37:47.353Z,4.80
2019-01-02T01:40:17.130Z,4.33
2019-01-02T01:42:46.664Z,6.00
2019-01-02T01:45:16.464Z,4.20
2019-01-02T01:47:46.002Z,5.33
2019-01-02T01:50:15.903Z,3.70
2019-01-02T01:52:45.435Z,4.07
2019-01-02T01:55:14.952Z,3.73
2019-01-02T01:57:44.871Z,4.10
2019-01-02T02:00:17.292Z,4.10
2019-01-02T02:02:46.832Z,5.33
2019-01-02T02:05:16.730Z,3.67
2019-01-02T02:07:48.784Z,4.33
2019-01-02T02:10:18.646Z,4.03
2019-01-02T02:12:48.457Z,4.57
2019-01-02T02:15:18.080Z,4.83
2019-01-02T02:17:48.041Z,3.27
2019-01-02T02:20:17.593Z,3.93
2019-01-02T02:22:47.277Z,4.70
2019-01-02T02:25:18.371Z,2.90
2019-01-02T02:27:47.931Z,3.50
2019-01-02T02:30:18.235Z,3.53
2019-01-02T02:32:47.853Z,3.40
2019-01-02T02:35:17.787Z,5.17
2019-01-02T02:37:47.442Z,3.17
2019-01-02T02:40:17.064Z,3.70
2019-01-02T02:42:46.753Z,3.27
2019-01-02T02:45:16.688Z,5.20
2019-01-02T02:47:46.719Z,3.23
2019-01-02T02:50:16.932Z,4.00
2019-01-02T02:52:46.842Z,3.17
2019-01-02T02:55:19.792Z,4.23
2019-01-02T02:57:49.345Z,3.23
2019-01-02T03:00:18.923Z,1.43
2019-01-02T03:02:48.494Z,2.90
2019-01-02T03:05:18.350Z,4.30
2019-01-02T03:07:47.907Z,3.00
2019-01-02T03:10:18.120Z,2.73
2019-01-02T03:12:48.047Z,3.50
2019-01-02T03:15:27.117Z,3.23
2019-01-02T03:17:56.747Z,3.17
2019-01-02T03:20:26.322Z,3.30
2019-01-02T03:22:55.881Z,2.07
2019-01-02T03:25:25.836Z,2.30
2019-01-02T03:27:55.764Z,2.77
2019-01-02T03:30:25.613Z,4.03
2019-01-02T03:32:55.578Z,3.10
2019-01-02T03:35:25.513Z,2.97
2019-01-02T03:37:55.114Z,3.03
2019-01-02T03:40:24.745Z,2.77
2019-01-02T03:42:54.324Z,2.33
2019-01-02T03:45:24.302Z,1.97
2019-01-02T03:47:54.326Z,2.70
2019-01-02T03:50:23.884Z,1.90
2019-01-02T03:52:53.503Z,2.70
2019-01-02T03:55:23.138Z,2.73
2019-01-02T03:57:52.720Z,1.80
2019-01-02T04:00:22.352Z,2.00
2019-01-02T04:02:51.958Z,2.37
2019-01-02T04:05:24.197Z,2.40
2019-01-02T04:07:58.498Z,2.87
2019-01-02T04:10:28.061Z,3.40
2019-01-02T04:12:57.647Z,2.60
2019-01-02T04:15:27.507Z,1.67
2019-01-02T04:17:57.214Z,2.40
2019-01-02T04:20:26.834Z,2.50
2019-01-02T04:22:56.477Z,1.80
2019-01-02T04:25:26.039Z,2.17
2019-01-02T04:27:55.596Z,2.40
2019-01-02T04:30:25.172Z,1.30
2019-01-02T04:32:54.726Z,1.60
2019-01-02T04:35:24.316Z,2.13
2019-01-02T04:37:53.949Z,1.30
2019-01-02T04:40:23.596Z,1.20
2019-01-02T04:42:53.151Z,2.70
2019-01-02T04:45:22.730Z,1.10
2019-01-02T04:47:52.285Z,1.53
2019-01-02T04:50:21.870Z,1.77
2019-01-02T04:52:51.422Z,1.40
2019-01-02T04:55:21.045Z,1.23
2019-01-02T04:57:50.604Z,1.97
2019-01-02T05:00:20.248Z,1.23
2019-01-02T05:02:49.802Z,2.17
2019-01-02T05:05:19.450Z,1.83
2019-01-02T05:07:49.000Z,1.10
2019-01-02T05:10:18.587Z,2.40
2019-01-02T05:12:48.154Z,2.00
2019-01-02T05:15:17.723Z,1.77
2019-01-02T05:17:47.281Z,2.20
2019-01-02T05:20:16.866Z,1.50
2019-01-02T05:22:46.414Z,1.20
2019-01-02T05:25:16.002Z,1.73
2019-01-02T05:27:45.559Z,1.83
2019-01-02T05:30:17.260Z,1.53
2019-01-02T05:32:46.882Z,1.20
2019-01-02T05:35:16.497Z,1.80
2019-01-02T05:37:46.089Z,2.20
2019-01-02T05:40:18.229Z,2.23
2019-01-02T05:42:47.809Z,2.03
2019-01-02T05:45:17.484Z,1.33
2019-01-02T05:47:47.131Z,1.90
2019-01-02T05:50:16.684Z,2.30
2019-01-02T05:52:46.346Z,1.70
2019-01-02T05:55:15.884Z,1.73
2019-01-02T05:57:45.533Z,1.53
2019-01-02T06:00:16.081Z,1.27
2019-01-02T06:02:45.655Z,1.67
2019-01-02T06:05:15.220Z,1.67
2019-01-02T06:07:44.801Z,1.90
2019-01-02T06:10:14.678Z,2.50
2019-01-02T06:12:44.354Z,2.43
2019-01-02T06:15:15.054Z,1.90
2019-01-02T06:17:44.876Z,2.27
2019-01-02T06:20:15.873Z,1.73
2019-01-02T06:22:45.455Z,2.40
2019-01-02T06:25:15.021Z,2.20
2019-01-02T06:27:44.667Z,2.73
2019-01-02T06:30:14.302Z,2.43
2019-01-02T06:32:43.957Z,2.07
2019-01-02T06:35:13.511Z,1.90
2019-01-02T06:37:43.175Z,8.07
2019-01-02T06:40:12.872Z,14.20
2019-01-02T06:42:42.464Z,9.80
2019-01-02T06:45:13.483Z,7.40
2019-01-02T06:47:43.062Z,3.07
2019-01-02T06:50:21.680Z,2.80
2019-01-02T06:52:51.266Z,3.23
2019-01-02T06:55:20.812Z,2.63
2019-01-02T06:57:50.432Z,3.23
2019-01-02T07:00:24.765Z,3.30
2019-01-02T07:02:54.310Z,2.53
2019-01-02T07:05:24.035Z,2.47
2019-01-02T07:07:53.728Z,2.10
2019-01-02T07:10:23.301Z,1.97
2019-01-02T07:12:52.926Z,3.73
2019-01-02T07:15:23.600Z,1.93
2019-01-02T07:17:53.249Z,1.50
2019-01-02T07:20:22.964Z,2.20
2019-01-02T07:22:52.521Z,1.27
2019-01-02T07:25:22.098Z,1.40
2019-01-02T07:27:51.732Z,3.80
2019-01-02T07:30:23.146Z,1.93
2019-01-02T07:32:52.755Z,2.03
2019-01-02T07:35:55.570Z,1.37
2019-01-02T07:39:03.365Z,0.87
2019-01-02T07:42:16.956Z,1.47
2019-01-02T07:45:37.871Z,1.13
2019-01-02T07:48:33.114Z,1.20
2019-01-02T07:51:33.546Z,1.47
2019-01-02T07:54:35.050Z,1.30
2019-01-02T07:57:12.267Z,1.00
2019-01-02T08:00:29.166Z,1.80
2019-01-02T08:03:39.393Z,1.53
2019-01-02T08:06:25.217Z,1.30
2019-01-02T08:09:22.213Z,2.20
2019-01-02T08:12:14.366Z,2.00
2019-01-02T08:14:54.202Z,1.00
2019-01-02T08:17:49.286Z,1.47
2019-01-02T08:21:01.245Z,1.03
2019-01-02T08:23:38.444Z,1.50
2019-01-02T08:26:24.610Z,1.20
2019-01-02T08:29:37.254Z,0.90
2019-01-02T08:32:17.433Z,1.60
2019-01-02T08:34:57.324Z,1.57
2019-01-02T08:37:52.398Z,1.03
2019-01-02T08:40:26.699Z,1.30
2019-01-02T08:43:06.706Z,1.20
2019-01-02T08:46:09.968Z,1.60
2019-01-02T08:49:08.109Z,1.47
2019-01-02T08:51:57.168Z,1.20
2019-01-02T08:55:06.398Z,1.10
2019-01-02T08:57:55.209Z,1.77
2019-01-02T09:01:08.197Z,1.10
2019-01-02T09:04:11.226Z,1.63
2019-01-02T09:07:14.161Z,1.00
2019-01-02T09:10:10.988Z,0.97
2019-01-02T09:13:10.810Z,0.90
2019-01-02T09:15:47.928Z,1.10
2019-01-02T09:18:30.859Z,1.23
2019-01-02T09:21:45.881Z,1.00
2019-01-02T09:24:35.308Z,1.00
2019-01-02T09:27:24.712Z,1.17
2019-01-02T09:30:42.725Z,0.87
2019-01-02T09:33:35.288Z,2.20
2019-01-02T09:36:21.152Z,0.90
2019-01-02T09:39:10.645Z,1.37
2019-01-02T09:42:08.880Z,2.13
2019-01-02T09:45:03.929Z,1.90
2019-01-02T09:47:54.928Z,1.80
2019-01-02T09:50:50.055Z,4.10
2019-01-02T09:53:40.866Z,2.20
2019-01-02T09:56:36.191Z,2.50
2019-01-02T09:59:33.205Z,1.80
2019-01-02T10:02:56.145Z,2.60
2019-01-02T10:05:45.130Z,1.47
2019-01-02T10:08:51.227Z,1.50
2019-01-02T10:11:33.812Z,1.20
2019-01-02T10:14:31.524Z,1.63
2019-01-02T10:17:23.627Z,1.70
2019-01-02T10:20:20.758Z,1.87
2019-01-02T10:23:13.145Z,1.43
2019-01-02T10:25:56.016Z,1.10
2019-01-02T10:29:05.029Z,1.83
2019-01-02T10:31:47.662Z,1.80
2019-01-02T10:34:53.501Z,1.47
2019-01-02T10:37:56.570Z,1.30
2019-01-02T10:40:50.311Z,1.97
2019-01-02T10:43:39.285Z,1.90
2019-01-02T10:46:36.186Z,1.30
2019-01-02T10:49:38.949Z,2.30
2019-01-02T10:52:22.230Z,1.60
2019-01-02T10:55:26.714Z,2.00
2019-01-02T10:58:28.089Z,2.70
2019-01-02T11:01:11.484Z,1.80
2019-01-02T11:04:12.436Z,1.40
2019-01-02T11:07:30.265Z,0.80
2019-01-02T11:10:29.833Z,1.17
2019-01-02T11:13:37.157Z,1.13
2019-01-02T11:16:48.471Z,1.23
2019-01-02T11:19:47.714Z,0.77
2019-01-02T11:22:53.578Z,0.80
2019-01-02T11:25:36.443Z,1.00
2019-01-02T11:28:19.255Z,0.67
2019-01-02T11:31:10.559Z,1.07
2019-01-02T11:34:13.262Z,0.90
2019-01-02T11:36:53.422Z,0.90
2019-01-02T11:39:39.410Z,0.70
2019-01-02T11:42:28.261Z,0.90
2019-01-02T11:45:07.081Z,1.00
2019-01-02T11:47:36.753Z,2.23
2019-01-02T11:50:11.357Z,0.70
2019-01-02T11:52:41.053Z,1.50
2019-01-02T11:55:10.902Z,0.73
2019-01-02T11:57:40.435Z,0.80
2019-01-02T12:00:15.284Z,0.63
2019-01-02T12:02:44.885Z,0.70
2019-01-02T12:05:14.886Z,0.80
2019-01-02T12:07:44.626Z,0.70
2019-01-02T12:10:14.826Z,0.90
2019-01-02T12:12:44.454Z,0.77
2019-01-02T12:15:14.075Z,1.00
2019-01-02T12:17:43.814Z,0.93
2019-01-02T12:20:13.368Z,0.80
2019-01-02T12:22:43.001Z,0.67
2019-01-02T12:25:12.578Z,0.70
2019-01-02T12:27:42.145Z,0.70
2019-01-02T12:30:13.490Z,0.60
2019-01-02T12:32:43.098Z,0.70
2019-01-02T12:35:12.653Z,0.67
2019-01-02T12:37:42.214Z,1.00
2019-01-02T12:40:11.873Z,0.80
2019-01-02T12:42:41.452Z,0.70
2019-01-02T12:45:11.139Z,0.83
2019-01-02T12:47:40.828Z,1.00
2019-01-02T12:50:10.564Z,0.67
2019-01-02T12:52:40.118Z,0.80
2019-01-02T12:55:09.772Z,1.13
2019-01-02T12:57:39.422Z,1.53
2019-01-02T13:00:13.117Z,0.83
2019-01-02T13:03:14.412Z,0.80
2019-01-02T13:06:00.326Z,1.07
2019-01-02T13:09:02.392Z,0.70
2019-01-02T13:11:39.557Z,0.90
2019-01-02T13:14:43.860Z,1.00
2019-01-02T13:17:38.901Z,1.13
2019-01-02T13:20:35.703Z,1.13
2019-01-02T13:23:18.701Z,0.73
2019-01-02T13:25:53.027Z,0.93
2019-01-02T13:28:55.517Z,0.80
2019-01-02T13:31:55.479Z,0.70
2019-01-02T13:34:50.090Z,1.27
2019-01-02T13:37:54.285Z,1.30
2019-01-02T13:40:47.343Z,0.77
2019-01-02T13:43:30.559Z,1.60
2019-01-02T13:46:22.666Z,1.20
2019-01-02T13:48:57.035Z,1.23
2019-01-02T13:51:26.994Z,1.17
2019-01-02T13:53:56.621Z,1.23
2019-01-02T13:56:26.268Z,1.67
2019-01-02T13:58:55.821Z,1.10
2019-01-02T14:01:25.391Z,0.90
2019-01-02T14:03:55.234Z,1.03
2019-01-02T14:06:24.874Z,0.80
2019-01-02T14:08:54.574Z,1.20
2019-01-02T14:11:24.165Z,1.20
2019-01-02T14:13:55.546Z,1.73
2019-01-02T14:16:25.118Z,2.13
2019-01-02T14:18:54.695Z,1.10
2019-01-02T14:21:24.260Z,1.53
2019-01-02T14:23:53.843Z,1.87
2019-01-02T14:26:23.414Z,1.30
2019-01-02T14:28:52.970Z,1.67
2019-01-02T14:31:22.549Z,1.40
2019-01-02T14:33:52.107Z,1.67
2019-01-02T14:36:21.715Z,1.77
2019-01-02T14:38:51.249Z,0.87
2019-01-02T14:41:20.813Z,1.30
2019-01-02T14:43:50.392Z,1.10
2019-01-02T14:46:19.965Z,1.37
2019-01-02T14:48:49.550Z,1.03
2019-01-02T14:51:19.109Z,1.10
2019-01-02T14:53:48.667Z,0.90
2019-01-02T14:56:18.275Z,1.37
2019-01-02T14:58:47.810Z,0.90
2019-01-02T15:01:17.397Z,0.87
2019-01-02T15:03:46.948Z,1.30
2019-01-02T15:06:16.541Z,1.23
2019-01-02T15:08:46.100Z,1.50
2019-01-02T15:11:15.707Z,1.73
2019-01-02T15:13:45.293Z,1.97
2019-01-02T15:16:14.863Z,1.90
2019-01-02T15:18:44.458Z,1.77
2019-01-02T15:21:13.987Z,1.53
2019-01-02T15:23:43.768Z,0.80
2019-01-02T15:26:13.320Z,1.40
2019-01-02T15:28:42.889Z,1.90
2019-01-02T15:31:12.513Z,1.30
2019-01-02T15:33:42.026Z,1.20
2019-01-02T15:36:11.794Z,2.07
2019-01-02T15:38:41.429Z,1.67
2019-01-02T15:41:10.972Z,1.37
2019-01-02T15:43:40.555Z,1.40
2019-01-02T15:46:11.307Z,1.47
2019-01-02T15:48:41.007Z,1.57
2019-01-02T15:51:10.570Z,1.23
2019-01-02T15:53:40.296Z,1.90
2019-01-02T15:56:09.941Z,1.80
2019-01-02T15:58:39.585Z,1.30
2019-01-02T16:01:09.171Z,1.20
2019-01-02T16:03:38.732Z,1.23
2019-01-02T16:06:08.413Z,1.67
2019-01-02T16:08:39.245Z,1.50
2019-01-02T16:11:08.796Z,0.93
2019-01-02T16:13:38.402Z,1.33
2019-01-02T16:16:07.967Z,1.13
2019-01-02T16:18:37.641Z,1.27
2019-01-02T16:21:07.234Z,1.20
2019-01-02T16:23:36.817Z,1.03
2019-01-02T16:26:06.401Z,1.13
2019-01-02T16:28:35.939Z,1.03
2019-01-02T16:31:05.736Z,1.20
2019-01-02T16:33:35.285Z,1.27
2019-01-02T16:36:04.892Z,1.10
2019-01-02T16:38:34.466Z,1.30
2019-01-02T16:41:04.182Z,0.87
2019-01-02T16:43:33.821Z,1.03
2019-01-02T16:46:03.449Z,1.87
2019-01-02T16:48:33.034Z,2.37
2019-01-02T16:51:02.656Z,3.80
2019-01-02T16:53:32.409Z,2.90
2019-01-02T16:56:01.960Z,1.73
2019-01-02T16:58:31.515Z,1.00
2019-01-02T17:01:01.099Z,0.90
2019-01-02T17:03:30.753Z,0.80
2019-01-02T17:06:00.347Z,1.10
2019-01-02T17:08:29.909Z,1.20
2019-01-02T17:10:59.491Z,1.50
2019-01-02T17:13:29.067Z,1.10
2019-01-02T17:15:58.636Z,0.90
2019-01-02T17:18:28.223Z,0.80
2019-01-02T17:20:57.774Z,1.20
2019-01-02T17:23:27.723Z,1.20
2019-01-02T17:25:57.295Z,1.13
2019-01-02T17:28:26.850Z,0.87
2019-01-02T17:30:56.440Z,0.93
2019-01-02T17:33:28.711Z,0.93
2019-01-02T17:35:58.312Z,0.80
2019-01-02T17:38:27.884Z,1.00
2019-01-02T17:40:57.478Z,2.07
2019-01-02T17:43:27.113Z,1.03
2019-01-02T17:45:56.680Z,2.00
2019-01-02T17:48:26.260Z,1.23
2019-01-02T17:50:55.899Z,1.67
2019-01-02T17:53:25.493Z,1.40
2019-01-02T17:55:55.066Z,1.30
2019-01-02T17:58:24.654Z,1.37
2019-01-02T18:00:54.304Z,1.13
2019-01-02T18:03:23.894Z,5.60
2019-01-02T18:05:53.477Z,0.93
2019-01-02T18:08:23.040Z,1.40
2019-01-02T18:10:52.622Z,1.60
2019-01-02T18:13:22.180Z,1.73
2019-01-02T18:15:51.735Z,1.87
2019-01-02T18:18:21.351Z,1.00
2019-01-02T18:20:50.900Z,2.70
2019-01-02T18:23:20.476Z,1.10
2019-01-02T18:25:50.053Z,1.90
2019-01-02T18:28:19.867Z,1.60
2019-01-02T18:30:49.442Z,1.60
2019-01-02T18:33:18.992Z,1.57
2019-01-02T18:35:48.588Z,1.33
2019-01-02T18:38:18.153Z,1.63
2019-01-02T18:40:47.743Z,1.77
2019-01-02T18:43:17.315Z,1.73
2019-01-02T18:45:46.922Z,1.70
2019-01-02T18:48:16.499Z,2.10
2019-01-02T18:50:46.067Z,5.87
2019-01-02T18:53:15.629Z,2.90
2019-01-02T18:55:45.296Z,3.37
2019-01-02T18:58:14.856Z,2.17
2019-01-02T19:00:44.444Z,1.60
2019-01-02T19:03:14.019Z,2.30
2019-01-02T19:05:43.608Z,3.87
2019-01-02T19:08:13.176Z,2.30
2019-01-02T19:10:42.770Z,2.60
2019-01-02T19:13:12.351Z,2.30
2019-01-02T19:15:41.929Z,2.17
2019-01-02T19:18:11.565Z,3.47
2019-01-02T19:20:41.155Z,1.57
2019-01-02T19:23:10.719Z,1.70
2019-01-02T19:25:40.388Z,1.60
2019-01-02T19:28:10.050Z,3.17
2019-01-02T19:30:39.584Z,2.07
2019-01-02T19:33:09.184Z,2.00
2019-01-02T19:35:38.760Z,2.00
2019-01-02T19:38:08.416Z,2.00
2019-01-02T19:40:37.978Z,1.17
2019-01-02T19:43:07.792Z,1.50
2019-01-02T19:45:37.350Z,2.07
2019-01-02T19:48:06.911Z,1.40
2019-01-02T19:50:36.566Z,1.70
2019-01-02T19:53:06.203Z,1.93
2019-01-02T19:55:35.829Z,2.70
2019-01-02T19:58:05.671Z,1.90
2019-01-02T20:00:35.453Z,1.67
2019-01-02T20:03:05.002Z,1.87
2019-01-02T20:05:34.570Z,2.90
2019-01-02T20:08:04.236Z,2.37
2019-01-02T20:10:33.812Z,3.20
2019-01-02T20:13:03.406Z,3.00
2019-01-02T20:15:32.972Z,2.80
2019-01-02T20:18:02.558Z,2.30
2019-01-02T20:20:32.194Z,2.90
2019-01-02T20:23:01.758Z,2.20
2019-01-02T20:25:31.350Z,2.23
2019-01-02T20:28:00.993Z,2.90
2019-01-02T20:30:30.626Z,2.50
2019-01-02T20:33:00.249Z,1.87
2019-01-02T20:35:30.064Z,2.77
2019-01-02T20:37:59.628Z,1.93
2019-01-02T20:40:29.192Z,4.67
2019-01-02T20:42:58.786Z,3.17
2019-01-02T20:45:28.395Z,2.30
2019-01-02T20:47:58.082Z,1.83
2019-01-02T20:50:27.707Z,2.87
2019-01-02T20:52:57.347Z,3.17
2019-01-02T20:55:26.940Z,2.20
2019-01-02T20:57:56.573Z,2.40
2019-01-02T21:00:26.253Z,2.47
2019-01-02T21:02:55.827Z,10.33
2019-01-02T21:05:25.570Z,2.10
2019-01-02T21:07:55.147Z,2.50
2019-01-02T21:10:24.812Z,2.20
2019-01-02T21:12:54.736Z,2.33
2019-01-02T21:15:24.305Z,2.17
2019-01-02T21:17:53.920Z,1.90
2019-01-02T21:20:23.487Z,2.03
2019-01-02T21:22:53.235Z,2.20
2019-01-02T21:25:22.872Z,1.70
2019-01-02T21:27:52.451Z,2.73
2019-01-02T21:30:22.112Z,2.10
2019-01-02T21:32:51.716Z,2.07
2019-01-02T21:35:22.899Z,2.80
2019-01-02T21:37:52.484Z,2.37
2019-01-02T21:40:22.186Z,2.37
2019-01-02T21:42:51.802Z,2.20
2019-01-02T21:45:21.473Z,3.10
2019-01-02T21:47:51.030Z,3.87
2019-01-02T21:50:20.651Z,2.80
2019-01-02T21:52:50.215Z,1.80
2019-01-02T21:55:19.807Z,2.17
2019-01-02T21:57:49.447Z,2.20
2019-01-02T22:00:19.305Z,2.63
2019-01-02T22:02:48.956Z,2.10
2019-01-02T22:05:18.833Z,2.70
2019-01-02T22:07:48.437Z,2.20
2019-01-02T22:10:18.007Z,2.90
2019-01-02T22:12:47.606Z,2.57
2019-01-02T22:15:17.262Z,3.43
2019-01-02T22:17:46.848Z,2.77
2019-01-02T22:20:16.484Z,2.30
2019-01-02T22:22:46.088Z,1.80
2019-01-02T22:25:15.656Z,1.80
2019-01-02T22:27:45.557Z,2.20
2019-01-02T22:30:15.166Z,1.57
2019-01-02T22:32:44.749Z,1.90
2019-01-02T22:35:14.321Z,1.97
2019-01-02T22:37:44.014Z,2.90
2019-01-02T22:40:13.640Z,2.33
2019-01-02T22:42:43.255Z,2.17
2019-01-02T22:45:12.897Z,2.03
2019-01-02T22:47:42.487Z,2.13
2019-01-02T22:50:12.116Z,2.10
2019-01-02T22:52:41.719Z,2.17
2019-01-02T22:55:11.375Z,1.73
2019-01-02T22:57:40.955Z,1.93
2019-01-02T23:00:13.288Z,1.70
2019-01-02T23:02:44.894Z,1.93
2019-01-02T23:05:14.428Z,3.17
2019-01-02T23:07:54.745Z,1.47
2019-01-02T23:10:33.129Z,2.03
2019-01-02T23:13:13.382Z,1.83
2019-01-02T23:16:00.034Z,1.90
2019-01-02T23:18:40.335Z,2.33
2019-01-02T23:21:23.505Z,1.63
2019-01-02T23:24:10.052Z,2.50
2019-01-02T23:26:57.216Z,2.40
2019-01-02T23:29:44.977Z,2.17
2019-01-02T23:32:16.177Z,1.97
2019-01-02T23:35:02.487Z,2.00
2019-01-02T23:37:39.651Z,1.93
2019-01-02T23:40:09.121Z,1.90
2019-01-02T23:42:40.363Z,1.50
2019-01-02T23:45:14.487Z,1.80
2019-01-02T23:47:57.630Z,2.33
2019-01-02T23:50:44.633Z,2.30
2019-01-02T23:53:24.684Z,2.53
2019-01-02T23:55:55.919Z,2.00
2019-01-02T23:58:36.832Z,1.93
